Weather at Jackson Hole Airport

Public forecast

Using degrees Fahrenheit for public forecast. Weather courtesy of forecast.io.

Current aviation weather report (METAR) for Jackson Hole Airport

Retrieved 2020/10/28 01:56 UTC (39 minutes ago):

KJAC 280156Z 00000KT 10SM CLR M04/M06 A3020 RMK AO2 SLP308 T10391056

Aviation forecast (TAF) for Jackson Hole Airport

Retrieved 2020-10-28 00:30 UTC (2 hours ago):

TAF KJAC 272327Z 2800/2824 VRB06KT P6SM FEW050 SCT200 FM280200 01005KT P6SM SCT080 BKN150 FM281600 VRB06KT P6SM FEW120